Time;durP1;ratioP1;P1;durP2;ratioP2;P2;SDS_P1;SDS_P2;PMS_P1;PMS_P2;Temp;Humidity;BMP_temperature;BMP_pressure;BME280_temperature;BME280_humidity;BME280_pressure;Samples;Min_cycle;Max_cycle;Signal;HPM_P1;HPM_P2
2022/10/30 00:01:47;;;;;;;16.55;7.45;;;;;;;14.53;100.00;101555.13;4969958;28;20080;-66
2022/10/30 00:04:13;;;;;;;11.57;6.60;;;;;;;14.48;100.00;101556.72;4970279;28;20383;-66
2022/10/30 00:06:38;;;;;;;10.48;6.25;;;;;;;14.41;100.00;101551.31;4956120;28;20019;-67
2022/10/30 00:09:03;;;;;;;15.63;7.00;;;;;;;14.36;100.00;101562.47;4969648;28;20104;-67
2022/10/30 00:11:29;;;;;;;11.77;7.78;;;;;;;14.27;100.00;101563.97;4969912;28;20479;-66
2022/10/30 00:13:54;;;;;;;12.45;6.38;;;;;;;14.22;100.00;101562.06;4957364;28;20103;-66
2022/10/30 00:16:19;;;;;;;12.80;6.85;;;;;;;14.16;100.00;101561.06;4972310;28;20104;-67
2022/10/30 00:18:45;;;;;;;10.80;6.45;;;;;;;14.09;100.00;101553.91;4988806;28;20038;-66
2022/10/30 00:21:13;;;;;;;11.48;6.28;;;;;;;14.03;100.00;101558.97;4956681;28;20023;-66
2022/10/30 00:23:43;;;;;;;11.00;6.30;;;;;;;13.98;100.00;101557.91;4963811;28;20545;-66
2022/10/30 00:26:08;;;;;;;10.95;6.80;;;;;;;13.91;100.00;101556.84;4956088;28;20026;-66
2022/10/30 00:28:34;;;;;;;10.93;6.47;;;;;;;13.88;100.00;101565.47;4969291;28;20027;-66
2022/10/30 00:31:01;;;;;;;14.90;7.20;;;;;;;13.87;100.00;101562.84;4964259;28;20041;-66
2022/10/30 00:33:26;;;;;;;10.93;6.68;;;;;;;13.80;100.00;101559.13;4949924;28;20042;-67
2022/10/30 00:35:52;;;;;;;11.60;6.93;;;;;;;13.78;100.00;101559.09;4965733;28;20035;-66
2022/10/30 00:38:17;;;;;;;17.23;6.72;;;;;;;13.73;100.00;101560.69;4961742;28;20948;-66
2022/10/30 00:40:42;;;;;;;15.98;7.72;;;;;;;13.69;100.00;101559.69;4962620;28;20031;-67
2022/10/30 00:43:37;;;;;;;9.98;6.68;;;;;;;13.67;100.00;101557.91;4949974;28;20035;-67
2022/10/30 00:46:34;;;;;;;14.93;8.18;;;;;;;13.59;100.00;101555.06;4976619;28;20525;-67
2022/10/30 00:49:02;;;;;;;12.85;7.50;;;;;;;13.56;100.00;101552.38;4973146;28;20373;-66
2022/10/30 00:51:30;;;;;;;12.00;6.63;;;;;;;13.53;100.00;101554.84;4979331;28;20031;-67
2022/10/30 00:53:58;;;;;;;12.80;7.07;;;;;;;13.46;100.00;101548.53;4959844;28;20037;-67
2022/10/30 00:56:24;;;;;;;15.88;7.03;;;;;;;13.42;100.00;101555.38;4965579;28;20110;-67
2022/10/30 00:58:55;;;;;;;14.80;7.15;;;;;;;13.40;100.00;101551.81;4967407;28;20058;-66
2022/10/30 01:01:23;;;;;;;12.70;6.93;;;;;;;13.36;100.00;101549.09;4972438;28;20030;-66
2022/10/30 01:03:53;;;;;;;11.55;7.50;;;;;;;13.29;100.00;101553.22;4967577;28;20031;-67
2022/10/30 01:06:18;;;;;;;12.80;7.45;;;;;;;13.24;100.00;101554.78;4982089;28;20027;-66
2022/10/30 01:08:45;;;;;;;15.38;7.95;;;;;;;13.17;100.00;101544.16;4974789;28;20100;-67
2022/10/30 01:11:10;;;;;;;11.55;6.90;;;;;;;13.13;100.00;101551.84;4963529;28;20118;-67
2022/10/30 01:13:38;;;;;;;12.35;7.30;;;;;;;13.06;100.00;101545.56;4975314;28;20034;-66
2022/10/30 01:16:34;;;;;;;16.83;8.10;;;;;;;13.01;100.00;101547.09;4969914;28;20541;-67
2022/10/30 01:19:08;;;;;;;11.20;7.22;;;;;;;12.95;100.00;101553.88;4962893;28;20505;-67
2022/10/30 01:21:49;;;;;;;11.55;6.65;;;;;;;12.91;100.00;101562.41;4949783;28;20027;-66
2022/10/30 01:24:33;;;;;;;14.27;8.50;;;;;;;12.85;100.00;101567.41;4966273;28;20027;-66
2022/10/30 01:27:26;;;;;;;11.57;7.13;;;;;;;12.85;100.00;101568.28;4969869;28;20411;-67
2022/10/30 01:30:33;;;;;;;12.30;7.45;;;;;;;12.86;100.00;101569.19;4959171;28;20459;-66
2022/10/30 01:33:24;;;;;;;12.00;7.57;;;;;;;12.77;100.00;101559.31;4966041;28;20022;-66
2022/10/30 01:36:23;;;;;;;11.90;7.47;;;;;;;12.79;100.00;101562.00;4968366;28;20022;-67
2022/10/30 01:38:55;;;;;;;12.02;7.55;;;;;;;12.78;100.00;101555.91;4959676;28;20029;-66
2022/10/30 01:41:20;;;;;;;17.67;7.57;;;;;;;12.73;100.00;101560.97;4967801;28;20023;-66
2022/10/30 01:43:49;;;;;;;10.82;8.13;;;;;;;12.71;100.00;101564.31;4976071;28;20529;-66
2022/10/30 01:46:41;;;;;;;14.25;8.25;;;;;;;12.68;100.00;101570.28;4982851;28;20018;-67
2022/10/30 01:49:15;;;;;;;;;;;;;;;12.68;100.00;101572.88;4968592;28;20203;-66
2022/10/30 01:51:52;;;;;;;11.32;7.65;;;;;;;12.68;100.00;101565.09;4967760;28;20282;-66
2022/10/30 01:54:38;;;;;;;14.35;8.18;;;;;;;12.67;100.00;101572.84;4968099;28;20168;-67
2022/10/30 01:57:33;;;;;;;14.43;8.25;;;;;;;12.65;100.00;101561.50;4967016;28;20061;-66
2022/10/30 02:00:07;;;;;;;19.80;8.93;;;;;;;12.64;100.00;101563.25;4954910;28;20032;-66
2022/10/30 02:02:32;;;;;;;14.73;8.80;;;;;;;12.56;100.00;101564.66;4955497;28;20030;-66
2022/10/30 02:04:58;;;;;;;13.95;9.00;;;;;;;12.53;100.00;101575.84;4967607;28;20034;-66
2022/10/30 02:07:24;;;;;;;11.30;7.38;;;;;;;12.54;100.00;101579.34;4963059;28;20138;-67
2022/10/30 02:09:53;;;;;;;10.70;7.70;;;;;;;12.54;100.00;101572.41;4959285;28;20396;-66
2022/10/30 02:12:20;;;;;;;10.25;8.23;;;;;;;12.49;100.00;101580.06;4964504;28;20030;-67
2022/10/30 02:14:53;;;;;;;16.92;8.18;;;;;;;12.47;100.00;101573.91;4959745;28;20027;-66
2022/10/30 02:17:19;;;;;;;11.65;8.32;;;;;;;12.48;100.00;101583.47;4961806;28;20034;-67
2022/10/30 02:19:44;;;;;;;17.02;8.38;;;;;;;12.47;100.00;101576.50;4958389;28;20030;-66
2022/10/30 02:22:10;;;;;;;16.77;8.73;;;;;;;12.43;100.00;101577.22;4954430;28;20490;-66
2022/10/30 02:24:36;;;;;;;10.23;7.78;;;;;;;12.38;100.00;101568.38;4967252;28;20053;-67
2022/10/30 02:27:01;;;;;;;11.65;7.18;;;;;;;12.36;100.00;101567.44;4980227;28;20500;-67
2022/10/30 02:29:27;;;;;;;10.90;7.50;;;;;;;12.33;100.00;101570.81;4955961;28;20042;-66
2022/10/30 02:31:52;;;;;;;14.10;8.23;;;;;;;12.33;100.00;101580.31;4968095;28;20379;-66
2022/10/30 02:34:18;;;;;;;13.27;7.13;;;;;;;12.32;100.00;101581.16;4954173;28;20058;-67
2022/10/30 02:36:43;;;;;;;10.57;7.30;;;;;;;12.31;100.00;101575.06;4968148;28;20019;-67
2022/10/30 02:39:08;;;;;;;12.45;7.90;;;;;;;12.30;100.00;101580.22;4954135;28;20027;-66
2022/10/30 02:41:33;;;;;;;10.77;7.75;;;;;;;12.29;100.00;101586.22;4961418;28;20057;-67
2022/10/30 02:43:59;;;;;;;11.85;7.03;;;;;;;12.28;100.00;101584.47;4961903;28;20039;-66
2022/10/30 02:46:24;;;;;;;14.52;7.53;;;;;;;12.27;100.00;101588.78;4970716;28;20031;-66
2022/10/30 02:48:49;;;;;;;14.02;7.57;;;;;;;12.27;100.00;101593.09;4970826;28;20034;-67
2022/10/30 02:51:15;;;;;;;14.38;7.18;;;;;;;12.26;100.00;101589.59;4968144;28;20387;-66
2022/10/30 02:53:40;;;;;;;14.48;8.27;;;;;;;12.26;100.00;101592.22;4959972;28;20031;-66
2022/10/30 02:56:08;;;;;;;14.05;7.88;;;;;;;12.25;100.00;101593.91;4970606;28;20027;-67
2022/10/30 02:58:33;;;;;;;14.43;7.65;;;;;;;12.27;100.00;101588.78;4971107;28;20034;-66
2022/10/30 03:01:13;;;;;;;13.05;7.68;;;;;;;12.27;100.00;101578.38;4970494;28;20030;-66
2022/10/30 03:03:39;;;;;;;12.95;6.97;;;;;;;12.28;100.00;101579.28;4971097;28;20265;-66
2022/10/30 03:06:07;;;;;;;11.23;7.95;;;;;;;12.24;100.00;101579.16;4971134;28;20067;-66
2022/10/30 03:08:33;;;;;;;14.98;8.45;;;;;;;12.23;100.00;101581.72;4970437;28;20026;-66
2022/10/30 03:11:04;;;;;;;17.25;8.63;;;;;;;12.21;100.00;101573.88;4981530;28;20037;-66
2022/10/30 03:13:31;;;;;;;10.40;7.90;;;;;;;12.21;100.00;101572.97;4971767;28;20026;-66
2022/10/30 03:16:01;;;;;;;12.10;7.60;;;;;;;12.19;100.00;101572.91;4968465;28;20432;-66
2022/10/30 03:18:27;;;;;;;15.65;7.55;;;;;;;12.18;100.00;101572.88;4951798;28;20031;-66
2022/10/30 03:21:00;;;;;;;14.77;7.72;;;;;;;12.17;100.00;101576.28;4951568;28;20038;-66
2022/10/30 03:23:26;;;;;;;8.85;7.20;;;;;;;12.17;100.00;101574.56;4951244;28;20055;-66
2022/10/30 03:25:57;;;;;;;13.95;7.65;;;;;;;12.17;100.00;101574.56;4964214;28;20106;-66
2022/10/30 03:28:24;;;;;;;13.80;7.57;;;;;;;12.18;100.00;101565.94;4951337;28;20051;-66
2022/10/30 03:30:50;;;;;;;12.25;7.28;;;;;;;12.19;100.00;101567.72;4966707;28;20049;-66
2022/10/30 03:33:16;;;;;;;13.00;7.72;;;;;;;12.20;100.00;101574.66;4985598;28;20560;-67
2022/10/30 03:35:43;;;;;;;13.02;8.02;;;;;;;12.21;100.00;101573.88;4970922;28;20023;-66
2022/10/30 03:38:09;;;;;;;12.15;7.45;;;;;;;12.22;100.00;101570.41;4983053;28;20031;-66
2022/10/30 03:40:35;;;;;;;13.45;8.18;;;;;;;12.21;100.00;101568.66;4973613;28;20031;-66
2022/10/30 03:43:00;;;;;;;11.38;7.15;;;;;;;12.23;100.00;101566.13;4974788;28;20026;-66
2022/10/30 03:45:25;;;;;;;10.27;7.78;;;;;;;12.23;100.00;101574.78;4964246;28;20313;-66
2022/10/30 03:47:50;;;;;;;13.45;7.40;;;;;;;12.22;100.00;101578.22;4973693;28;20114;-66
2022/10/30 03:50:16;;;;;;;14.38;7.68;;;;;;;12.21;100.00;101578.16;4975674;28;20026;-66
2022/10/30 03:52:41;;;;;;;20.08;8.93;;;;;;;12.22;100.00;101578.22;4973937;28;20027;-66
2022/10/30 03:55:07;;;;;;;12.50;7.68;;;;;;;12.20;100.00;101577.28;4967457;28;20389;-66
2022/10/30 03:57:36;;;;;;;11.77;7.20;;;;;;;12.20;100.00;101574.66;4975260;28;20071;-66
2022/10/30 04:00:01;;;;;;;12.57;8.10;;;;;;;12.22;100.00;101585.13;4960821;28;20055;-66
2022/10/30 04:02:26;;;;;;;14.63;7.57;;;;;;;12.21;100.00;101573.88;4950118;28;20114;-66
2022/10/30 04:04:52;;;;;;;10.80;7.38;;;;;;;12.20;100.00;101572.06;4950929;28;20486;-66
2022/10/30 04:07:17;;;;;;;15.88;7.18;;;;;;;12.21;100.00;101584.25;4953632;28;20023;-66
2022/10/30 04:09:42;;;;;;;9.63;7.25;;;;;;;12.20;100.00;101577.28;4950890;28;20026;-66
2022/10/30 04:12:07;;;;;;;10.50;6.72;;;;;;;12.19;100.00;101588.50;4953933;28;20386;-66
2022/10/30 04:14:33;;;;;;;11.48;6.93;;;;;;;12.17;100.00;101586.66;4967417;28;20030;-67
2022/10/30 04:16:58;;;;;;;10.60;7.38;;;;;;;12.15;100.00;101590.91;4966474;28;20113;-66
2022/10/30 04:19:23;;;;;;;12.85;6.90;;;;;;;12.12;100.00;101589.09;4980163;28;20478;-66
2022/10/30 04:21:50;;;;;;;15.52;8.05;;;;;;;12.10;100.00;101585.56;4985347;28;20022;-66
2022/10/30 04:24:17;;;;;;;12.82;8.23;;;;;;;12.09;100.00;101584.66;4964049;28;20023;-66
2022/10/30 04:26:43;;;;;;;14.05;8.57;;;;;;;12.07;100.00;101591.47;4965966;28;20030;-66
2022/10/30 04:29:08;;;;;;;12.57;7.78;;;;;;;12.06;100.00;101583.63;4988478;28;20084;-66
2022/10/30 04:31:33;;;;;;;11.57;7.50;;;;;;;12.03;100.00;101584.41;4975770;28;20059;-66
2022/10/30 04:33:58;;;;;;;12.57;7.40;;;;;;;11.99;100.00;101586.00;4982573;28;20035;-66
2022/10/30 04:36:29;;;;;;;13.63;7.43;;;;;;;11.98;100.00;101585.94;4958959;28;20514;-66
2022/10/30 04:38:54;;;;;;;10.18;7.32;;;;;;;11.95;100.00;101589.31;4976628;28;20023;-66
2022/10/30 04:41:19;;;;;;;12.52;8.57;;;;;;;11.94;100.00;101584.94;4959245;28;20034;-66
2022/10/30 04:43:47;;;;;;;13.50;8.40;;;;;;;11.93;100.00;101579.66;4968916;28;20023;-66
2022/10/30 04:46:13;;;;;;;10.65;7.80;;;;;;;11.92;100.00;101576.22;4969570;28;20035;-66
2022/10/30 04:48:39;;;;;;;14.20;8.68;;;;;;;11.89;100.00;101570.91;4969128;28;20081;-67
2022/10/30 04:51:04;;;;;;;12.02;8.18;;;;;;;11.89;100.00;101576.09;4968927;28;20034;-66
2022/10/30 04:53:30;;;;;;;10.27;7.70;;;;;;;11.87;100.00;101570.81;4957919;28;20031;-67
2022/10/30 04:55:55;;;;;;;16.80;9.27;;;;;;;11.89;100.00;101560.53;4966488;28;20522;-66
2022/10/30 04:58:20;;;;;;;14.98;10.85;;;;;;;11.85;100.00;101548.22;4968811;28;20034;-66
2022/10/30 05:00:46;;;;;;;16.08;9.52;;;;;;;11.81;100.00;101547.22;4967465;28;20031;-66
2022/10/30 05:03:20;;;;;;;15.98;9.45;;;;;;;11.82;100.00;101535.13;4959355;28;20467;-66
2022/10/30 05:05:58;;;;;;;13.85;8.93;;;;;;;11.83;100.00;101539.50;4963924;28;20368;-66
2022/10/30 05:08:23;;;;;;;13.82;8.75;;;;;;;11.87;100.00;101552.63;4965501;28;20121;-66
2022/10/30 05:10:48;;;;;;;11.30;8.07;;;;;;;11.94;100.00;101552.88;4954897;28;20105;-66
2022/10/30 05:13:14;;;;;;;12.32;8.15;;;;;;;11.97;100.00;101548.69;4968892;28;20035;-66
2022/10/30 05:15:40;;;;;;;13.13;8.00;;;;;;;12.00;100.00;101558.28;4957703;28;20026;-66
2022/10/30 05:18:05;;;;;;;11.73;8.10;;;;;;;12.01;100.00;101555.78;4964978;28;20045;-67
2022/10/30 05:20:30;;;;;;;10.63;7.65;;;;;;;12.04;100.00;101549.81;4977225;28;20101;-66
2022/10/30 05:22:57;;;;;;;13.95;7.63;;;;;;;12.06;100.00;101549.84;4973037;28;20034;-66
2022/10/30 05:25:23;;;;;;;12.45;7.43;;;;;;;12.06;100.00;101549.84;4968431;28;20398;-66
2022/10/30 05:27:49;;;;;;;13.50;7.35;;;;;;;12.06;100.00;101557.66;4968738;28;20034;-66
2022/10/30 05:30:14;;;;;;;12.85;7.40;;;;;;;12.06;100.00;101557.66;4968284;28;20435;-66
2022/10/30 05:32:39;;;;;;;12.05;7.55;;;;;;;12.04;100.00;101559.28;4967708;28;20031;-66
2022/10/30 05:35:05;;;;;;;8.32;6.82;;;;;;;11.98;100.00;101560.84;4965558;28;20142;-66
2022/10/30 05:37:30;;;;;;;10.25;7.70;;;;;;;11.93;100.00;101564.09;4964621;28;20030;-66
2022/10/30 05:39:55;;;;;;;10.68;7.65;;;;;;;11.88;100.00;101566.53;4971899;28;20107;-66
2022/10/30 05:42:21;;;;;;;12.65;7.40;;;;;;;11.86;100.00;101566.47;4974908;28;20031;-67
2022/10/30 05:44:46;;;;;;;11.65;7.55;;;;;;;11.86;100.00;101570.75;4971548;28;20426;-66
2022/10/30 05:47:11;;;;;;;16.02;7.53;;;;;;;11.84;100.00;101568.13;4982628;28;20540;-66
2022/10/30 05:49:37;;;;;;;15.40;8.20;;;;;;;11.79;100.00;101560.97;4977615;28;20031;-66
2022/10/30 05:52:02;;;;;;;10.77;8.38;;;;;;;11.76;100.00;101566.94;4954273;28;20031;-66
2022/10/30 05:54:27;;;;;;;11.23;7.88;;;;;;;11.71;100.00;101566.75;4971781;28;20027;-66
2022/10/30 05:56:53;;;;;;;12.85;7.95;;;;;;;11.67;100.00;101570.06;4972751;28;20025;-66
2022/10/30 05:59:18;;;;;;;9.68;7.68;;;;;;;11.64;100.00;101564.72;4982363;28;20484;-67
2022/10/30 06:01:43;;;;;;;12.15;8.07;;;;;;;11.61;100.00;101562.03;4974534;28;20049;-66
2022/10/30 06:04:09;;;;;;;19.58;8.65;;;;;;;11.57;100.00;101567.91;4958528;28;20310;-66
2022/10/30 06:06:34;;;;;;;13.75;7.78;;;;;;;11.51;100.00;101566.84;4965873;28;20034;-66
2022/10/30 06:08:59;;;;;;;12.00;9.15;;;;;;;11.47;100.00;101564.06;4970935;28;20491;-66
2022/10/30 06:11:24;;;;;;;13.73;8.30;;;;;;;11.42;100.00;101563.91;4958592;28;20038;-66
2022/10/30 06:13:50;;;;;;;12.75;9.02;;;;;;;11.39;100.00;101575.03;4960332;28;20041;-66
2022/10/30 06:16:15;;;;;;;12.57;7.70;;;;;;;11.35;100.00;101567.06;4971819;28;20677;-66
2022/10/30 06:18:40;;;;;;;13.23;8.05;;;;;;;11.31;100.00;101576.44;4969362;28;20031;-66
2022/10/30 06:21:06;;;;;;;12.52;9.13;;;;;;;11.28;100.00;101574.59;4956586;28;20083;-66
2022/10/30 06:23:31;;;;;;;12.40;8.20;;;;;;;11.24;100.00;101575.28;4966677;28;20541;-66
2022/10/30 06:25:56;;;;;;;12.18;8.93;;;;;;;11.21;100.00;101569.97;4968888;28;20022;-66
2022/10/30 06:28:22;;;;;;;14.30;8.32;;;;;;;11.16;100.00;101566.31;4970005;28;20038;-66
2022/10/30 06:30:47;;;;;;;17.25;8.75;;;;;;;11.11;100.00;101558.34;4969963;28;20510;-66
2022/10/30 06:33:12;;;;;;;10.90;8.63;;;;;;;11.09;100.00;101562.59;4972186;28;20037;-66
2022/10/30 06:35:38;;;;;;;12.20;8.82;;;;;;;11.08;100.00;101567.72;4967597;28;20030;-66
2022/10/30 06:38:03;;;;;;;13.68;8.73;;;;;;;11.04;100.00;101562.38;4965095;28;20031;-66
2022/10/30 06:40:29;;;;;;;12.23;8.55;;;;;;;10.99;100.00;101558.72;4953910;28;20460;-66
2022/10/30 06:42:54;;;;;;;10.55;8.25;;;;;;;10.95;100.00;101559.41;4971252;28;20035;-66
2022/10/30 06:45:21;;;;;;;11.43;7.85;;;;;;;10.93;100.00;101558.47;4955300;28;20043;-66
2022/10/30 06:47:47;;;;;;;15.30;8.52;;;;;;;10.91;100.00;101554.91;4963310;28;20269;-65
2022/10/30 06:50:15;;;;;;;13.40;8.30;;;;;;;10.89;100.00;101557.44;4968824;28;20532;-66
2022/10/30 06:52:40;;;;;;;14.80;8.38;;;;;;;10.88;100.00;101560.84;4967287;28;20098;-66
2022/10/30 06:55:06;;;;;;;15.40;9.38;;;;;;;10.86;100.00;101554.75;4970128;28;20038;-65
2022/10/30 06:57:32;;;;;;;15.52;9.20;;;;;;;10.87;100.00;101560.78;4960686;28;20035;-66
2022/10/30 06:59:57;;;;;;;13.85;8.32;;;;;;;10.84;100.00;101563.25;4970262;28;20049;-66
2022/10/30 07:02:22;;;;;;;13.32;8.13;;;;;;;10.80;100.00;101557.94;4970994;28;20034;-66
2022/10/30 07:04:48;;;;;;;12.57;8.40;;;;;;;10.78;100.00;101559.59;4957938;28;20058;-66
2022/10/30 07:07:15;;;;;;;11.10;8.27;;;;;;;10.79;100.00;101550.97;4970234;28;20109;-66
2022/10/30 07:09:40;;;;;;;13.82;8.40;;;;;;;10.73;100.00;101545.53;4974265;28;20034;-66
2022/10/30 07:12:07;;;;;;;12.45;8.65;;;;;;;10.75;100.00;101541.31;4973148;28;20406;-66
2022/10/30 07:14:32;;;;;;;11.65;9.05;;;;;;;10.76;100.00;101545.66;4969349;28;20027;-66
2022/10/30 07:16:57;;;;;;;17.08;8.75;;;;;;;10.79;100.00;101543.19;4980803;28;20034;-66
2022/10/30 07:19:23;;;;;;;12.73;8.40;;;;;;;10.84;100.00;101543.41;4987263;28;20497;-66
2022/10/30 07:21:48;;;;;;;11.32;9.27;;;;;;;10.89;100.00;101546.19;4963466;28;20038;-66
2022/10/30 07:24:13;;;;;;;15.23;9.43;;;;;;;10.93;100.00;101548.09;4964991;28;20390;-66
2022/10/30 07:26:39;;;;;;;13.00;8.77;;;;;;;10.97;100.00;101550.00;4983047;28;20030;-66
2022/10/30 07:29:05;;;;;;;15.75;8.32;;;;;;;11.01;100.00;101557.06;4969696;28;20134;-66
2022/10/30 07:31:30;;;;;;;13.80;7.88;;;;;;;11.04;100.00;101562.38;4970403;28;20148;-66
2022/10/30 07:33:55;;;;;;;14.20;9.20;;;;;;;11.06;100.00;101554.69;4970683;28;20034;-66
2022/10/30 07:36:21;;;;;;;15.85;9.35;;;;;;;11.09;100.00;101554.81;4956420;28;20107;-67
2022/10/30 07:38:47;;;;;;;13.70;8.82;;;;;;;11.14;100.00;101554.97;4963898;28;20038;-66
2022/10/30 07:41:13;;;;;;;14.48;8.98;;;;;;;11.16;100.00;101556.84;4956942;28;20031;-66
2022/10/30 07:43:38;;;;;;;11.50;8.45;;;;;;;11.18;100.00;101554.28;4969304;28;20402;-66
2022/10/30 07:46:03;;;;;;;15.60;8.68;;;;;;;11.24;100.00;101554.53;4970296;28;20430;-66
2022/10/30 07:48:28;;;;;;;15.55;8.80;;;;;;;11.31;100.00;101555.69;4969897;28;20027;-66
2022/10/30 07:50:54;;;;;;;15.70;8.85;;;;;;;11.36;100.00;101546.38;4961304;28;20485;-66
2022/10/30 07:53:19;;;;;;;13.82;8.45;;;;;;;11.42;100.00;101543.16;4965314;28;20030;-66
2022/10/30 07:55:44;;;;;;;12.68;8.30;;;;;;;11.47;100.00;101549.41;4963381;28;20058;-66
2022/10/30 07:58:09;;;;;;;12.93;9.18;;;;;;;11.54;100.00;101547.94;4961011;28;20031;-66
2022/10/30 08:00:35;;;;;;;13.73;9.85;;;;;;;11.59;100.00;101546.41;4954793;28;20030;-67
2022/10/30 08:03:00;;;;;;;16.10;8.80;;;;;;;11.65;100.00;101553.53;4952753;28;20023;-67
2022/10/30 08:05:25;;;;;;;13.25;9.05;;;;;;;11.67;100.00;101554.50;4951457;28;20059;-66
2022/10/30 08:07:51;;;;;;;12.70;8.90;;;;;;;11.73;100.00;101549.53;4952985;28;20030;-66
2022/10/30 08:10:16;;;;;;;8.85;7.53;;;;;;;11.82;100.00;101558.50;4958756;28;20641;-66
2022/10/30 08:12:43;;;;;;;14.20;8.60;;;;;;;11.87;100.00;101552.63;4955258;28;20037;-66
2022/10/30 08:15:09;;;;;;;16.17;9.02;;;;;;;11.94;100.00;101548.59;4957083;28;20478;-66
2022/10/30 08:17:45;;;;;;;11.48;8.07;;;;;;;12.01;100.00;101548.00;4954799;28;20035;-66
2022/10/30 08:20:13;;;;;;;11.27;8.32;;;;;;;12.08;100.00;101545.59;4950644;28;20035;-66
2022/10/30 08:22:52;;;;;;;9.85;7.93;;;;;;;12.12;100.00;101542.34;4953905;28;20066;-66
2022/10/30 08:25:19;;;;;;;13.20;8.40;;;;;;;12.18;100.00;101534.75;4967959;28;20047;-66
2022/10/30 08:27:50;;;;;;;10.68;9.05;;;;;;;12.27;100.00;101530.75;4949290;28;20039;-67
2022/10/30 08:30:15;;;;;;;12.23;8.25;;;;;;;12.35;100.00;101539.69;4956371;28;20025;-66
2022/10/30 08:32:41;;;;;;;15.88;8.25;;;;;;;12.40;100.00;101543.31;4959304;28;20019;-66
2022/10/30 08:35:06;;;;;;;13.73;8.68;;;;;;;12.47;100.00;101547.91;4958534;28;20134;-67
2022/10/30 08:37:32;;;;;;;13.15;7.90;;;;;;;12.60;100.00;101561.34;4960611;28;20487;-66
2022/10/30 08:39:57;;;;;;;16.73;8.07;;;;;;;12.75;100.00;101560.13;4954659;28;20142;-66
2022/10/30 08:42:22;;;;;;;15.35;9.10;;;;;;;12.91;100.00;101553.72;4951579;28;20031;-66
2022/10/30 08:44:47;;;;;;;14.07;8.63;;;;;;;13.04;100.00;101547.22;4954776;28;20495;-66
2022/10/30 08:47:13;;;;;;;15.48;8.43;;;;;;;13.11;100.00;101538.78;4957011;28;20023;-66
2022/10/30 08:49:38;;;;;;;13.65;8.75;;;;;;;13.19;100.00;101541.63;4948550;28;20762;-66
2022/10/30 08:52:07;;;;;;;10.30;7.30;;;;;;;13.26;100.00;101543.59;4955757;28;20023;-66
2022/10/30 08:54:32;;;;;;;9.43;6.88;;;;;;;13.33;100.00;101537.75;4964963;28;20427;-66
2022/10/30 08:56:58;;;;;;;12.60;8.43;;;;;;;13.40;100.00;101545.75;4949625;28;20106;-66
2022/10/30 08:59:23;;;;;;;14.23;8.05;;;;;;;13.44;100.00;101548.50;4949229;28;20023;-66
2022/10/30 09:01:49;;;;;;;13.40;8.30;;;;;;;13.50;100.00;101546.91;4960580;28;20027;-66
2022/10/30 09:04:15;;;;;;;12.57;8.18;;;;;;;13.57;100.00;101548.91;4982591;28;20062;-66
2022/10/30 09:06:40;;;;;;;9.93;7.53;;;;;;;13.62;100.00;101552.53;4978280;28;20042;-66
2022/10/30 09:09:06;;;;;;;11.68;8.27;;;;;;;13.69;100.00;101546.69;4965326;28;20600;-66
2022/10/30 09:11:31;;;;;;;12.70;7.72;;;;;;;13.75;100.00;101543.38;4960973;28;20031;-66
2022/10/30 09:13:56;;;;;;;10.45;6.68;;;;;;;13.81;100.00;101550.50;4962468;28;20117;-66
2022/10/30 09:16:21;;;;;;;11.07;8.10;;;;;;;13.88;100.00;101544.63;4963200;28;20538;-67
2022/10/30 09:18:47;;;;;;;12.05;8.23;;;;;;;13.96;100.00;101541.38;4959437;28;20078;-66
2022/10/30 09:21:12;;;;;;;15.00;8.45;;;;;;;14.04;100.00;101538.16;4960204;28;20011;-66
2022/10/30 09:23:38;;;;;;;9.90;7.65;;;;;;;14.12;100.00;101538.34;4975783;28;20033;-66
2022/10/30 09:26:03;;;;;;;15.35;7.70;;;;;;;14.22;100.00;101533.41;4959735;28;20082;-66
2022/10/30 09:28:28;;;;;;;12.70;7.50;;;;;;;14.32;100.00;101522.38;4973527;28;20018;-66
2022/10/30 09:30:55;;;;;;;14.18;6.75;;;;;;;14.41;100.00;101519.16;4971971;28;20079;-66
2022/10/30 09:33:21;;;;;;;10.05;6.80;;;;;;;14.55;100.00;101526.47;4954080;28;20035;-67
2022/10/30 09:35:46;;;;;;;15.13;7.63;;;;;;;14.65;100.00;101523.25;4968915;28;20097;-66
2022/10/30 09:38:11;;;;;;;9.27;7.60;;;;;;;14.74;100.00;101527.81;4966551;28;20027;-67
2022/10/30 09:41:10;;;;;;;12.82;7.10;;;;;;;14.82;100.00;101531.53;4974142;28;20037;-66
2022/10/30 09:43:57;;;;;;;10.77;6.65;;;;;;;14.94;100.00;101530.97;4982174;28;20519;-66
2022/10/30 09:46:53;;;;;;;10.13;6.45;;;;;;;15.06;100.00;101535.59;4979366;28;20069;-66
2022/10/30 09:49:21;;;;;;;9.30;6.10;;;;;;;15.15;100.00;101532.34;4976102;28;20114;-67
2022/10/30 09:52:26;;;;;;;10.02;6.20;;;;;;;15.22;100.00;101546.41;4979615;28;20041;-66
2022/10/30 09:55:04;;;;;;;9.90;5.70;;;;;;;15.30;100.00;101555.34;4974989;28;20030;-67
2022/10/30 09:57:40;;;;;;;8.23;6.55;;;;;;;15.33;100.00;101560.63;4975699;28;20041;-66
2022/10/30 10:00:11;;;;;;;10.45;6.43;;;;;;;15.36;100.00;101567.66;4970716;28;20057;-67
2022/10/30 10:02:49;;;;;;;12.63;6.28;;;;;;;15.39;100.00;101567.72;4972400;28;20089;-66
2022/10/30 10:05:20;;;;;;;9.93;6.00;;;;;;;15.42;100.00;101566.88;4973443;28;20101;-66
2022/10/30 10:07:49;;;;;;;7.80;5.47;;;;;;;15.44;100.00;101566.09;4972033;28;20024;-67
2022/10/30 10:10:38;;;;;;;9.88;6.30;;;;;;;15.46;100.00;101567.03;4976717;28;20023;-66
2022/10/30 10:13:06;;;;;;;10.75;6.68;;;;;;;15.46;100.00;101566.13;4957344;28;20023;-67
2022/10/30 10:16:12;;;;;;;11.02;6.38;;;;;;;15.46;100.00;101553.06;4955938;28;20034;-66
2022/10/30 10:18:45;;;;;;;12.25;6.40;;;;;;;15.53;100.00;101552.38;4967210;28;20121;-66
2022/10/30 10:21:28;;;;;;;8.40;5.53;;;;;;;15.59;100.00;101546.41;4956988;28;20043;-67
2022/10/30 10:23:57;;;;;;;13.57;7.32;;;;;;;15.61;100.00;101545.56;4957550;28;20082;-66
2022/10/30 10:26:29;;;;;;;12.25;6.15;;;;;;;15.67;100.00;101546.59;4965387;28;20474;-66
2022/10/30 10:29:14;;;;;;;12.13;5.75;;;;;;;15.71;100.00;101557.13;4957268;28;20031;-66
2022/10/30 10:32:12;;;;;;;11.57;5.97;;;;;;;15.77;100.00;101545.94;4960832;28;20046;-66
2022/10/30 10:34:56;;;;;;;13.20;6.50;;;;;;;15.84;100.00;101540.00;4967360;28;20085;-67
2022/10/30 10:37:39;;;;;;;9.15;6.13;;;;;;;15.94;100.00;101545.38;4967645;28;20019;-67
2022/10/30 10:40:24;;;;;;;11.15;5.72;;;;;;;16.01;100.00;101544.69;4953607;28;20386;-66
2022/10/30 10:43:15;;;;;;;9.52;5.28;;;;;;;16.05;100.00;101536.06;4967346;28;20019;-66
2022/10/30 10:45:43;;;;;;;8.77;5.32;;;;;;;16.08;100.00;101536.13;4967715;28;20047;-67
2022/10/30 10:48:29;;;;;;;9.77;5.57;;;;;;;16.14;100.00;101537.09;4967717;28;20482;-66
2022/10/30 10:51:01;;;;;;;11.73;5.57;;;;;;;16.17;100.00;101529.34;4967855;28;20065;-66
2022/10/30 10:53:33;;;;;;;8.70;4.70;;;;;;;16.20;100.00;101534.63;4953427;28;20035;-67
2022/10/30 10:56:00;;;;;;;10.65;4.55;;;;;;;16.24;100.00;101544.31;4976626;28;20022;-66
2022/10/30 10:58:33;;;;;;;8.48;5.65;;;;;;;16.28;100.00;101542.63;4985108;28;20033;-66
2022/10/30 11:00:59;;;;;;;10.85;4.68;;;;;;;16.35;100.00;101544.50;4975612;28;20033;-67
2022/10/30 11:03:56;;;;;;;6.53;4.93;;;;;;;16.46;100.00;101547.31;4960634;28;20027;-67
2022/10/30 11:06:26;;;;;;;9.32;5.38;;;;;;;16.53;100.00;101543.94;4975816;28;20045;-67
2022/10/30 11:09:00;;;;;;;5.40;4.73;;;;;;;16.59;100.00;101542.28;4970649;28;20019;-66
2022/10/30 11:11:26;;;;;;;11.68;5.70;;;;;;;16.66;100.00;101536.31;4963922;28;20057;-66
2022/10/30 11:13:51;;;;;;;9.10;5.32;;;;;;;16.76;100.00;101529.53;4970352;28;20022;-67
2022/10/30 11:16:26;;;;;;;9.38;4.32;;;;;;;16.87;100.00;101527.09;4984578;28;20026;-66
2022/10/30 11:18:56;;;;;;;5.78;4.28;;;;;;;16.96;100.00;101522.03;4987123;28;20391;-67